Time;durP1;ratioP1;P1;durP2;ratioP2;P2;SDS_P1;SDS_P2;PMS_P1;PMS_P2;Temp;Humidity;BMP_temperature;BMP_pressure;BME280_temperature;BME280_humidity;BME280_pressure;Samples;Min_cycle;Max_cycle;Signal;HPM_P1;HPM_P2
2023/12/21 00:00:22;;;;;;;11.80;8.63;;;7.50;99.90;;;;;;5026523;28;20048;-76
2023/12/21 00:02:49;;;;;;;17.15;11.50;;;7.50;99.90;;;;;;5027220;28;20049;-75
2023/12/21 00:05:16;;;;;;;12.82;9.90;;;7.50;99.90;;;;;;5031409;28;20524;-76
2023/12/21 00:07:43;;;;;;;19.88;12.07;;;7.50;99.90;;;;;;5027469;28;20767;-76
2023/12/21 00:10:10;;;;;;;16.27;10.93;;;7.50;99.90;;;;;;5022195;28;20054;-75
2023/12/21 00:12:36;;;;;;;19.95;10.25;;;7.50;99.90;;;;;;5026743;28;20061;-75
2023/12/21 00:15:04;;;;;;;17.20;10.77;;;7.50;99.90;;;;;;5024527;28;20052;-77
2023/12/21 00:17:30;;;;;;;15.23;10.45;;;7.50;99.90;;;;;;5024210;28;20287;-77
2023/12/21 00:19:57;;;;;;;16.85;11.52;;;7.50;99.90;;;;;;5014058;28;20507;-77
2023/12/21 00:22:25;;;;;;;15.88;10.55;;;7.50;99.90;;;;;;5012346;28;20045;-76
2023/12/21 00:24:51;;;;;;;18.52;12.88;;;7.60;99.90;;;;;;5019840;28;20431;-77
2023/12/21 00:27:18;;;;;;;19.23;11.48;;;7.60;99.90;;;;;;5025410;28;20415;-77
2023/12/21 00:29:45;;;;;;;13.95;10.15;;;7.60;99.90;;;;;;5029226;28;20060;-77
2023/12/21 00:32:12;;;;;;;12.35;8.45;;;7.60;99.90;;;;;;5020379;28;20061;-77
2023/12/21 00:34:39;;;;;;;17.13;10.32;;;7.60;99.90;;;;;;5025407;28;20049;-76
2023/12/21 00:37:06;;;;;;;20.98;13.30;;;7.60;99.90;;;;;;5019787;28;20797;-77
2023/12/21 00:39:33;;;;;;;20.38;13.45;;;7.60;99.90;;;;;;5028026;28;20042;-76
2023/12/21 00:42:00;;;;;;;23.25;13.13;;;7.60;99.90;;;;;;5025131;28;20038;-76
2023/12/21 00:44:27;;;;;;;20.98;12.32;;;7.60;99.90;;;;;;5034351;28;20045;-75
2023/12/21 00:46:53;;;;;;;23.55;14.95;;;7.60;99.90;;;;;;5027672;28;20041;-75
2023/12/21 00:49:20;;;;;;;22.02;13.52;;;7.60;99.90;;;;;;5043674;28;20059;-77
2023/12/21 00:51:47;;;;;;;23.25;14.35;;;7.60;99.90;;;;;;5015573;28;20088;-76
2023/12/21 00:54:14;;;;;;;21.10;14.18;;;7.70;99.90;;;;;;5026395;28;20063;-76
2023/12/21 00:56:41;;;;;;;23.80;14.32;;;7.70;99.90;;;;;;5029125;28;20128;-76
2023/12/21 00:59:08;;;;;;;22.42;14.20;;;7.70;99.90;;;;;;5025004;28;20140;-75
2023/12/21 01:01:35;;;;;;;26.58;16.25;;;7.70;99.90;;;;;;5036589;28;20080;-78
2023/12/21 01:04:01;;;;;;;21.02;11.43;;;7.70;99.90;;;;;;5019146;28;20688;-78
2023/12/21 01:06:28;;;;;;;30.70;16.63;;;7.70;99.90;;;;;;5010281;28;20124;-77
2023/12/21 01:08:55;;;;;;;22.80;13.30;;;7.70;99.90;;;;;;5018571;28;20105;-77
2023/12/21 01:11:22;;;;;;;13.98;9.90;;;7.70;99.90;;;;;;5014203;28;20037;-76
2023/12/21 01:13:49;;;;;;;25.77;14.02;;;7.70;99.90;;;;;;5020864;28;20495;-77
2023/12/21 01:16:16;;;;;;;18.40;12.23;;;7.70;99.90;;;;;;5003636;28;20041;-75
2023/12/21 01:18:43;;;;;;;19.40;11.38;;;7.70;99.90;;;;;;5021321;28;20124;-76
2023/12/21 01:21:10;;;;;;;25.10;14.00;;;7.70;99.90;;;;;;5024150;28;20056;-76
2023/12/21 01:23:38;;;;;;;17.05;10.88;;;7.80;99.90;;;;;;5023783;28;20076;-77
2023/12/21 01:26:05;;;;;;;17.10;11.07;;;7.80;99.90;;;;;;5007145;28;20033;-75
2023/12/21 01:28:32;;;;;;;19.48;12.50;;;7.80;99.90;;;;;;5022129;28;20045;-77
2023/12/21 01:30:58;;;;;;;16.30;10.25;;;7.80;99.90;;;;;;5027503;28;20118;-76
2023/12/21 01:33:25;;;;;;;21.10;13.18;;;7.80;99.90;;;;;;5048094;28;20084;-76
2023/12/21 01:35:53;;;;;;;20.15;10.77;;;7.80;99.90;;;;;;5010084;28;20515;-76
2023/12/21 01:38:20;;;;;;;18.13;11.57;;;7.80;99.90;;;;;;5021433;28;20055;-77
2023/12/21 01:40:46;;;;;;;21.20;12.13;;;7.80;99.90;;;;;;4999463;28;20046;-76
2023/12/21 01:43:13;;;;;;;18.92;12.55;;;7.80;99.90;;;;;;5015989;28;20064;-76
2023/12/21 01:45:40;;;;;;;20.50;12.05;;;7.80;99.90;;;;;;5019610;28;20495;-74
2023/12/21 01:48:09;;;;;;;16.25;10.10;;;7.80;99.90;;;;;;5017897;28;20132;-75
2023/12/21 01:50:36;;;;;;;15.13;10.52;;;7.80;99.90;;;;;;5018670;28;20045;-76
2023/12/21 01:53:04;;;;;;;17.02;10.23;;;7.80;99.90;;;;;;5013971;28;20045;-76
2023/12/21 01:55:31;;;;;;;17.58;10.35;;;7.90;99.90;;;;;;5000886;28;20041;-77
2023/12/21 01:57:59;;;;;;;14.32;10.02;;;7.90;99.90;;;;;;5017688;28;20065;-75
2023/12/21 02:00:27;;;;;;;17.83;10.35;;;7.90;99.90;;;;;;5018607;28;20053;-77
2023/12/21 02:02:54;;;;;;;13.20;8.85;;;7.90;99.90;;;;;;5019309;28;20144;-78
2023/12/21 02:05:21;;;;;;;12.98;9.13;;;7.90;99.90;;;;;;5006749;28;20073;-77
2023/12/21 02:07:48;;;;;;;9.38;7.57;;;7.90;99.90;;;;;;5025851;28;20086;-79
2023/12/21 02:10:15;;;;;;;16.45;9.85;;;7.90;99.90;;;;;;5013451;28;20053;-75
2023/12/21 02:12:42;;;;;;;14.65;8.93;;;7.90;99.90;;;;;;5021207;28;20042;-77
2023/12/21 02:15:10;;;;;;;11.40;8.75;;;7.90;99.90;;;;;;5015263;28;20057;-76
2023/12/21 02:17:42;;;;;;;14.38;11.30;;;7.90;99.90;;;;;;5006192;28;20058;-75
2023/12/21 02:20:09;;;;;;;11.75;8.85;;;7.90;99.90;;;;;;5021434;28;21731;-76
2023/12/21 02:22:39;;;;;;;18.92;11.50;;;7.90;99.90;;;;;;5022945;28;20058;-77
2023/12/21 02:25:07;;;;;;;8.63;6.65;;;7.90;99.90;;;;;;5016895;28;20538;-74
2023/12/21 02:27:34;;;;;;;13.63;9.93;;;8.00;99.90;;;;;;5025007;28;20052;-75
2023/12/21 02:30:01;;;;;;;11.23;7.65;;;8.00;99.90;;;;;;5009016;28;20118;-74
2023/12/21 02:32:28;;;;;;;9.48;7.72;;;8.00;99.90;;;;;;5020584;28;20053;-78
2023/12/21 02:34:55;;;;;;;9.98;7.88;;;8.00;99.90;;;;;;5002766;28;20134;-77
2023/12/21 02:37:22;;;;;;;11.43;8.73;;;8.00;99.90;;;;;;5000331;28;20045;-77
2023/12/21 02:39:49;;;;;;;9.05;6.80;;;8.00;99.90;;;;;;5027327;28;20630;-75
2023/12/21 02:42:16;;;;;;;7.60;6.15;;;8.00;99.90;;;;;;5018450;28;20049;-74
2023/12/21 02:44:43;;;;;;;11.60;8.55;;;8.00;99.90;;;;;;5013977;28;20621;-77
2023/12/21 02:47:10;;;;;;;10.32;7.95;;;8.00;99.90;;;;;;5017508;28;20081;-75
2023/12/21 02:49:36;;;;;;;9.70;6.80;;;8.00;99.90;;;;;;5026803;28;20076;-75
2023/12/21 02:52:04;;;;;;;9.00;7.63;;;8.00;99.90;;;;;;5029383;28;20527;-75
2023/12/21 02:54:31;;;;;;;11.05;7.63;;;8.00;99.90;;;;;;5026503;28;20999;-76
2023/12/21 02:56:58;;;;;;;11.93;9.07;;;8.00;99.90;;;;;;5029669;28;20049;-76
2023/12/21 02:59:25;;;;;;;10.60;7.43;;;8.10;99.90;;;;;;5061497;28;20056;-76
2023/12/21 03:01:51;;;;;;;11.25;8.43;;;8.00;99.90;;;;;;5021295;28;20045;-75
2023/12/21 03:04:18;;;;;;;12.77;8.10;;;8.10;99.90;;;;;;5012262;28;20675;-77
2023/12/21 03:06:45;;;;;;;9.80;8.80;;;8.10;99.90;;;;;;5027242;28;20126;-75
2023/12/21 03:09:12;;;;;;;10.30;7.93;;;8.10;99.90;;;;;;5024151;28;20079;-76
2023/12/21 03:11:39;;;;;;;11.15;8.57;;;8.10;99.90;;;;;;5026410;28;20041;-76
2023/12/21 03:14:06;;;;;;;14.35;8.68;;;8.10;99.90;;;;;;5018732;28;20052;-75
2023/12/21 03:16:33;;;;;;;15.23;9.80;;;8.10;99.90;;;;;;5006429;28;20041;-75
2023/12/21 03:19:00;;;;;;;12.02;8.95;;;8.10;99.90;;;;;;5018694;28;20110;-76
2023/12/21 03:21:28;;;;;;;13.70;8.27;;;8.10;99.90;;;;;;5012872;28;20045;-77
2023/12/21 03:23:54;;;;;;;13.50;9.40;;;8.10;99.90;;;;;;5007565;28;20056;-76
2023/12/21 03:26:21;;;;;;;17.02;10.63;;;8.10;99.90;;;;;;5021771;28;20049;-76
2023/12/21 03:28:48;;;;;;;11.32;8.70;;;8.10;99.90;;;;;;5026361;28;20038;-75
2023/12/21 03:31:18;;;;;;;13.85;8.70;;;8.10;99.90;;;;;;5021627;28;20167;-78
2023/12/21 03:33:45;;;;;;;10.30;7.82;;;8.10;99.90;;;;;;5012864;28;20539;-76
2023/12/21 03:36:12;;;;;;;12.57;7.90;;;8.20;99.90;;;;;;5003663;28;20064;-75
2023/12/21 03:38:39;;;;;;;13.23;9.75;;;8.20;99.90;;;;;;5027200;28;20554;-77
2023/12/21 03:41:06;;;;;;;12.25;8.55;;;8.20;99.90;;;;;;5026028;28;20254;-75
2023/12/21 03:43:33;;;;;;;12.15;8.38;;;8.20;99.90;;;;;;5027146;28;20056;-74
2023/12/21 03:46:00;;;;;;;15.80;10.20;;;8.20;99.90;;;;;;5020168;28;20052;-77
2023/12/21 03:48:27;;;;;;;15.85;9.63;;;8.20;99.90;;;;;;5007240;28;20456;-76
2023/12/21 03:50:54;;;;;;;15.93;10.68;;;8.20;99.90;;;;;;5025933;28;20073;-75
2023/12/21 03:53:21;;;;;;;15.93;9.88;;;8.20;99.90;;;;;;5014713;28;20136;-76
2023/12/21 03:55:48;;;;;;;13.32;9.20;;;8.20;99.90;;;;;;5011741;28;20351;-76
2023/12/21 03:58:14;;;;;;;14.48;9.45;;;8.20;99.90;;;;;;5024004;28;20068;-76
2023/12/21 04:00:41;;;;;;;17.75;9.60;;;8.20;99.90;;;;;;5025098;28;20041;-77
2023/12/21 04:03:08;;;;;;;16.50;10.23;;;8.20;99.90;;;;;;5021009;28;20167;-75
2023/12/21 04:05:38;;;;;;;14.50;10.43;;;8.20;99.90;;;;;;5023703;28;20045;-76
2023/12/21 04:08:06;;;;;;;16.25;10.75;;;8.20;99.90;;;;;;5020748;28;20042;-77
2023/12/21 04:10:33;;;;;;;14.52;8.57;;;8.20;99.90;;;;;;5018260;28;20734;-78
2023/12/21 04:13:00;;;;;;;11.23;8.25;;;8.20;99.90;;;;;;5015688;28;20041;-76
2023/12/21 04:15:27;;;;;;;13.38;9.18;;;8.20;99.90;;;;;;5024232;28;20057;-77
2023/12/21 04:17:54;;;;;;;12.55;8.55;;;8.20;99.90;;;;;;5024092;28;20049;-77
2023/12/21 04:20:20;;;;;;;19.80;9.45;;;8.20;99.90;;;;;;5017197;28;20084;-75
2023/12/21 04:22:47;;;;;;;16.77;9.73;;;8.20;99.90;;;;;;5023148;28;20048;-76
2023/12/21 04:25:15;;;;;;;17.13;10.20;;;8.20;99.90;;;;;;5017772;28;20049;-73
2023/12/21 04:27:42;;;;;;;16.95;10.15;;;8.20;99.90;;;;;;5030027;28;20492;-77
2023/12/21 04:30:09;;;;;;;15.35;10.27;;;8.20;99.90;;;;;;5015098;28;20065;-75
2023/12/21 04:32:36;;;;;;;13.88;8.45;;;8.20;99.90;;;;;;5034195;28;20653;-75
2023/12/21 04:35:03;;;;;;;15.45;9.27;;;8.20;99.90;;;;;;5020559;28;20037;-77
2023/12/21 04:37:30;;;;;;;13.75;9.27;;;8.20;99.90;;;;;;5032404;28;20048;-77
2023/12/21 04:39:57;;;;;;;14.15;9.55;;;8.20;99.90;;;;;;5023766;28;20049;-75
2023/12/21 04:42:24;;;;;;;16.92;10.00;;;8.20;99.90;;;;;;5026959;28;20443;-76
2023/12/21 04:44:50;;;;;;;15.13;9.63;;;8.20;99.90;;;;;;5022841;28;20041;-76
2023/12/21 04:47:17;;;;;;;15.02;10.30;;;8.20;99.90;;;;;;5018375;28;20045;-76
2023/12/21 04:49:50;;;;;;;13.73;9.98;;;8.20;99.90;;;;;;5037856;28;20662;-76
2023/12/21 04:52:17;;;;;;;12.20;9.13;;;8.20;99.90;;;;;;5031259;28;20055;-76
2023/12/21 04:54:44;;;;;;;17.52;11.07;;;8.20;99.90;;;;;;5023801;28;20067;-76
2023/12/21 04:57:11;;;;;;;18.42;10.77;;;8.20;99.90;;;;;;5026577;28;20045;-74
2023/12/21 04:59:40;;;;;;;15.02;11.23;;;8.20;99.90;;;;;;5046167;28;20053;-77
2023/12/21 05:02:07;;;;;;;14.98;9.65;;;8.20;99.90;;;;;;5041313;28;20124;-75
2023/12/21 05:04:34;;;;;;;15.73;11.18;;;8.10;99.90;;;;;;5029051;28;20152;-77
2023/12/21 05:07:01;;;;;;;13.63;10.48;;;8.20;99.90;;;;;;5038592;28;20123;-74
2023/12/21 05:09:28;;;;;;;13.77;9.77;;;8.20;99.90;;;;;;5037108;28;20060;-76
2023/12/21 05:11:55;;;;;;;10.50;8.30;;;8.20;99.90;;;;;;5039142;28;20033;-75
2023/12/21 05:14:21;;;;;;;12.40;8.80;;;8.20;99.90;;;;;;5028670;28;20116;-75
2023/12/21 05:16:48;;;;;;;13.95;9.52;;;8.20;99.90;;;;;;5043615;28;20550;-75
2023/12/21 05:19:15;;;;;;;11.75;9.35;;;8.20;99.90;;;;;;5028672;28;20064;-75
2023/12/21 05:21:42;;;;;;;9.40;7.80;;;8.20;99.90;;;;;;5013299;28;20064;-78
2023/12/21 05:24:09;;;;;;;9.30;6.63;;;8.20;99.90;;;;;;5034141;28;20689;-77
2023/12/21 05:26:36;;;;;;;10.57;7.65;;;8.30;99.90;;;;;;5034027;28;20041;-81
2023/12/21 05:29:03;;;;;;;10.38;7.88;;;8.30;99.90;;;;;;5020078;28;20041;-81
2023/12/21 05:31:29;;;;;;;12.18;8.55;;;8.30;99.90;;;;;;5020999;28;20045;-82
2023/12/21 05:33:57;;;;;;;9.35;7.10;;;8.30;99.90;;;;;;5059244;28;20546;-83
2023/12/21 05:36:25;;;;;;;12.00;7.50;;;8.20;99.90;;;;;;5040119;28;20521;-81
2023/12/21 05:38:53;;;;;;;9.85;7.30;;;8.20;99.90;;;;;;5038313;28;20053;-82
2023/12/21 05:41:20;;;;;;;9.48;7.18;;;8.20;99.90;;;;;;5049291;28;20048;-84
2023/12/21 05:43:47;;;;;;;8.30;7.05;;;8.30;99.90;;;;;;5035897;28;20053;-80
2023/12/21 05:46:14;;;;;;;7.00;6.07;;;8.20;99.90;;;;;;5027997;28;20048;-85
2023/12/21 05:48:41;;;;;;;8.57;6.53;;;8.30;99.90;;;;;;5042179;28;20048;-81
2023/12/21 05:51:08;;;;;;;6.55;5.28;;;8.30;99.90;;;;;;5032383;28;20045;-81
2023/12/21 05:53:35;;;;;;;7.72;4.63;;;8.30;99.90;;;;;;5019842;28;20057;-81
2023/12/21 05:56:02;;;;;;;6.55;5.25;;;8.30;99.90;;;;;;5040841;28;20063;-83
2023/12/21 05:58:30;;;;;;;9.52;5.20;;;8.30;99.90;;;;;;5028561;28;20691;-81
2023/12/21 06:00:56;;;;;;;7.50;4.07;;;8.30;99.90;;;;;;5038365;28;20041;-82
2023/12/21 06:03:24;;;;;;;7.20;5.80;;;8.30;99.90;;;;;;5034270;28;20120;-80
2023/12/21 06:05:51;;;;;;;9.90;6.93;;;8.30;99.90;;;;;;5044948;28;20115;-80
2023/12/21 06:08:17;;;;;;;10.77;8.63;;;8.30;99.90;;;;;;5047810;28;20040;-82
2023/12/21 06:10:44;;;;;;;11.82;8.65;;;8.30;99.90;;;;;;5028016;28;20125;-81
2023/12/21 06:13:11;;;;;;;15.20;9.60;;;8.30;99.90;;;;;;5038628;28;20721;-81
2023/12/21 06:15:38;;;;;;;9.88;7.55;;;8.30;99.90;;;;;;5035463;28;20041;-85
2023/12/21 06:18:05;;;;;;;8.82;6.88;;;8.30;99.90;;;;;;5036976;28;20041;-80
2023/12/21 06:20:35;;;;;;;7.93;6.10;;;8.30;99.90;;;;;;5037782;28;20128;-81
2023/12/21 06:23:02;;;;;;;9.10;6.10;;;8.30;99.90;;;;;;5050360;28;20044;-81
2023/12/21 06:25:29;;;;;;;8.40;5.30;;;8.30;99.90;;;;;;5027151;28;20049;-81
2023/12/21 06:27:56;;;;;;;12.05;6.40;;;8.30;99.90;;;;;;5041735;28;20040;-81
2023/12/21 06:30:23;;;;;;;5.60;4.80;;;8.30;99.90;;;;;;5033417;28;20423;-81
2023/12/21 06:32:50;;;;;;;8.70;4.53;;;8.30;99.90;;;;;;5033513;28;20056;-76
2023/12/21 06:35:17;;;;;;;5.43;4.75;;;8.30;99.90;;;;;;5005145;28;20054;-76
2023/12/21 06:37:45;;;;;;;5.30;4.80;;;8.30;99.90;;;;;;5030061;28;20122;-76
2023/12/21 06:40:12;;;;;;;5.30;4.32;;;8.30;99.90;;;;;;5027666;28;20506;-76
2023/12/21 06:42:38;;;;;;;7.00;5.70;;;8.30;99.90;;;;;;5015980;28;20055;-77
2023/12/21 06:45:06;;;;;;;5.80;5.20;;;8.30;99.90;;;;;;5011769;28;20864;-80
2023/12/21 06:47:32;;;;;;;6.53;4.75;;;8.30;99.90;;;;;;5025373;28;20057;-78
2023/12/21 06:49:59;;;;;;;4.97;4.22;;;8.30;99.90;;;;;;5013686;28;20115;-78
2023/12/21 06:52:26;;;;;;;4.82;4.43;;;8.30;99.90;;;;;;5035720;28;20047;-78
2023/12/21 06:54:53;;;;;;;5.80;5.30;;;8.30;99.90;;;;;;5031969;28;20114;-76
2023/12/21 06:57:20;;;;;;;8.25;7.00;;;8.30;99.90;;;;;;5034370;28;20083;-75
2023/12/21 06:59:47;;;;;;;7.25;5.07;;;8.30;99.90;;;;;;5053674;28;20040;-76
2023/12/21 07:02:14;;;;;;;9.98;6.35;;;8.30;99.90;;;;;;5019401;28;20053;-75
2023/12/21 07:04:41;;;;;;;7.13;6.18;;;8.30;99.90;;;;;;5029139;28;20076;-76
2023/12/21 07:07:08;;;;;;;7.13;6.22;;;8.30;99.90;;;;;;5037542;28;20099;-76
2023/12/21 07:09:34;;;;;;;6.03;5.53;;;8.30;99.90;;;;;;5021086;28;20045;-76
2023/12/21 07:12:01;;;;;;;6.28;5.70;;;8.30;99.90;;;;;;5016101;28;20064;-76
2023/12/21 07:14:28;;;;;;;5.90;5.35;;;8.40;99.90;;;;;;5043849;28;20575;-76
2023/12/21 07:16:55;;;;;;;6.90;5.70;;;8.40;99.90;;;;;;5033588;28;20041;-76
2023/12/21 07:19:22;;;;;;;9.48;7.05;;;8.40;99.90;;;;;;5021025;28;20047;-74
2023/12/21 07:21:49;;;;;;;5.50;4.93;;;8.40;99.90;;;;;;5038359;28;20044;-74
2023/12/21 07:24:16;;;;;;;6.25;4.57;;;8.40;99.90;;;;;;5042107;28;20396;-75
2023/12/21 07:26:43;;;;;;;5.03;4.57;;;8.50;99.90;;;;;;5037982;28;20160;-75
2023/12/21 07:29:10;;;;;;;5.13;4.00;;;8.50;99.90;;;;;;5046501;28;20155;-75
2023/12/21 07:31:37;;;;;;;4.38;4.03;;;8.50;99.90;;;;;;5025262;28;20492;-75
2023/12/21 07:34:05;;;;;;;4.20;3.00;;;8.50;99.90;;;;;;5011289;28;20090;-76
2023/12/21 07:36:32;;;;;;;2.97;2.67;;;8.50;99.90;;;;;;5018192;28;20049;-78
2023/12/21 07:38:59;;;;;;;3.50;2.90;;;8.50;99.90;;;;;;5044787;28;20068;-77
2023/12/21 07:41:25;;;;;;;4.30;3.10;;;8.60;99.90;;;;;;5036237;28;20768;-77
2023/12/21 07:43:52;;;;;;;5.93;2.60;;;8.50;99.90;;;;;;5049924;28;20507;-78
2023/12/21 07:46:21;;;;;;;2.92;2.40;;;8.50;99.90;;;;;;5031841;28;20048;-76
2023/12/21 07:48:48;;;;;;;5.95;2.70;;;8.50;99.90;;;;;;5033367;28;20496;-76
2023/12/21 07:51:15;;;;;;;2.22;1.80;;;8.50;99.90;;;;;;5016816;28;20087;-77
2023/12/21 07:53:42;;;;;;;2.20;1.75;;;8.50;99.90;;;;;;5030657;28;20092;-77
2023/12/21 07:56:09;;;;;;;3.00;2.40;;;8.60;99.90;;;;;;5054539;28;20041;-76
2023/12/21 07:58:36;;;;;;;2.22;2.03;;;8.50;99.90;;;;;;5016556;28;20065;-76
2023/12/21 08:01:03;;;;;;;1.90;1.80;;;8.60;99.90;;;;;;5039148;28;20248;-78
2023/12/21 08:03:30;;;;;;;2.40;1.83;;;8.60;99.90;;;;;;5030580;28;20704;-75
2023/12/21 08:05:59;;;;;;;2.25;1.40;;;8.60;99.90;;;;;;5020277;28;20124;-77
2023/12/21 08:08:26;;;;;;;1.85;1.70;;;8.60;99.90;;;;;;5018478;28;20594;-75
2023/12/21 08:10:53;;;;;;;2.50;2.10;;;8.60;99.90;;;;;;5032621;28;20047;-76
2023/12/21 08:13:20;;;;;;;2.00;1.80;;;8.60;99.90;;;;;;5035085;28;20073;-77
2023/12/21 08:15:47;;;;;;;2.10;1.90;;;8.70;99.90;;;;;;5040046;28;22126;-76
2023/12/21 08:18:14;;;;;;;5.00;3.42;;;8.60;99.90;;;;;;5044740;28;20962;-77
2023/12/21 08:20:47;;;;;;;4.40;2.95;;;8.60;99.90;;;;;;5042981;28;20049;-77
2023/12/21 08:23:17;;;;;;;;;;;8.60;99.90;;;;;;5016730;28;20047;-75
2023/12/21 08:25:45;;;;;;;5.95;2.70;;;8.60;99.90;;;;;;5053861;28;20015;-76
2023/12/21 08:28:12;;;;;;;2.63;2.25;;;8.60;99.90;;;;;;5012180;28;20151;-77
2023/12/21 08:30:41;;;;;;;5.35;2.97;;;8.70;99.90;;;;;;5026156;28;20049;-77
2023/12/21 08:33:08;;;;;;;4.32;3.40;;;8.60;99.90;;;;;;5034596;28;20091;-77
2023/12/21 08:35:36;;;;;;;8.40;2.67;;;8.60;99.90;;;;;;5027385;28;20580;-75
2023/12/21 08:38:08;;;;;;;5.80;3.22;;;8.60;99.90;;;;;;5037860;28;20055;-78
2023/12/21 08:40:37;;;;;;;5.18;3.33;;;8.50;99.90;;;;;;5024000;28;20676;-77
2023/12/21 08:43:16;;;;;;;4.90;3.15;;;8.50;99.90;;;;;;5039894;28;22770;-77
2023/12/21 08:45:50;;;;;;;5.28;3.95;;;8.50;99.90;;;;;;5019720;28;20080;-76
2023/12/21 08:48:17;;;;;;;7.45;4.78;;;8.50;99.90;;;;;;5027348;28;20048;-77
2023/12/21 08:50:44;;;;;;;9.68;5.55;;;8.50;99.90;;;;;;5020760;28;20091;-76
2023/12/21 08:53:12;;;;;;;7.28;4.40;;;8.50;99.90;;;;;;5025509;28;20090;-75
2023/12/21 08:55:44;;;;;;;8.35;4.30;;;8.50;99.90;;;;;;5034369;28;20136;-78
2023/12/21 08:58:13;;;;;;;5.50;3.53;;;8.50;99.90;;;;;;5040706;28;20056;-75
2023/12/21 09:00:51;;;;;;;6.30;4.25;;;8.60;99.90;;;;;;5033518;28;20046;-77
2023/12/21 09:03:21;;;;;;;5.82;4.50;;;8.60;99.90;;;;;;5030942;28;20695;-77
2023/12/21 09:05:47;;;;;;;5.90;3.53;;;8.60;99.90;;;;;;5010160;28;20499;-78
2023/12/21 09:08:15;;;;;;;5.72;3.80;;;8.60;99.90;;;;;;5014867;28;20538;-77
2023/12/21 09:10:42;;;;;;;7.30;4.65;;;8.60;99.90;;;;;;5020328;28;20041;-78
2023/12/21 09:13:09;;;;;;;6.72;4.75;;;8.60;99.90;;;;;;5030257;28;20049;-77
2023/12/21 09:15:36;;;;;;;7.65;5.50;;;8.60;99.90;;;;;;5023667;28;20049;-77
2023/12/21 09:18:05;;;;;;;9.23;4.88;;;8.60;99.90;;;;;;5019801;28;20052;-77
2023/12/21 09:20:32;;;;;;;7.15;5.22;;;8.60;99.90;;;;;;5028749;28;20060;-76
2023/12/21 09:23:13;;;;;;;4.90;4.45;;;8.70;99.90;;;;;;5035009;28;20041;-77
2023/12/21 09:25:54;;;;;;;5.93;5.32;;;8.60;99.90;;;;;;5018987;28;20044;-77
2023/12/21 09:28:24;;;;;;;5.75;5.13;;;8.70;99.90;;;;;;5027767;28;20063;-78
2023/12/21 09:30:56;;;;;;;6.97;5.75;;;8.70;99.90;;;;;;5023182;28;20207;-76
2023/12/21 09:33:27;;;;;;;5.03;4.63;;;8.70;99.90;;;;;;5015880;28;20048;-77
2023/12/21 09:35:58;;;;;;;4.53;4.22;;;8.70;99.90;;;;;;5024528;28;20049;-77
2023/12/21 09:38:31;;;;;;;6.88;5.78;;;8.70;99.90;;;;;;5038367;28;20076;-78
2023/12/21 09:41:00;;;;;;;5.60;5.10;;;8.70;99.90;;;;;;5032831;28;20045;-82
2023/12/21 09:43:31;;;;;;;5.45;4.63;;;8.80;99.90;;;;;;5025025;28;20080;-82
2023/12/21 09:45:59;;;;;;;6.65;4.28;;;8.80;99.90;;;;;;5044111;28;20056;-80
2023/12/21 09:48:28;;;;;;;4.13;3.92;;;8.80;99.90;;;;;;5039307;28;20498;-81
2023/12/21 09:50:56;;;;;;;4.20;3.85;;;8.70;99.90;;;;;;5035907;28;20486;-82
2023/12/21 09:53:25;;;;;;;3.10;2.80;;;8.80;99.90;;;;;;5022569;28;20049;-80
2023/12/21 09:55:53;;;;;;;3.42;2.20;;;8.80;99.90;;;;;;5027322;28;20477;-79
2023/12/21 09:58:20;;;;;;;4.20;2.10;;;8.80;99.90;;;;;;5038715;28;20045;-81
2023/12/21 10:00:47;;;;;;;3.15;2.85;;;8.80;99.90;;;;;;5040007;28;20107;-80
2023/12/21 10:03:14;;;;;;;5.93;2.55;;;8.80;99.90;;;;;;5035576;28;20057;-80
2023/12/21 10:05:41;;;;;;;3.75;2.92;;;8.90;99.90;;;;;;5035024;28;20059;-81
2023/12/21 10:08:09;;;;;;;5.50;3.15;;;8.80;99.90;;;;;;5024114;28;20140;-79
2023/12/21 10:10:39;;;;;;;6.72;3.53;;;8.80;99.90;;;;;;5037020;28;20052;-82
2023/12/21 10:13:06;;;;;;;2.65;2.40;;;8.80;99.90;;;;;;5039962;28;20102;-81
2023/12/21 10:15:33;;;;;;;2.65;2.45;;;8.80;99.90;;;;;;5018228;28;20977;-82
2023/12/21 10:18:03;;;;;;;3.97;1.85;;;8.90;99.90;;;;;;5039800;28;20049;-80
2023/12/21 10:20:31;;;;;;;4.95;2.40;;;8.90;99.90;;;;;;5013720;28;20389;-80
2023/12/21 10:22:58;;;;;;;2.55;2.35;;;8.90;99.90;;;;;;5031538;28;20169;-78
2023/12/21 10:25:26;;;;;;;3.35;3.05;;;8.90;99.90;;;;;;5032750;28;20049;-81
2023/12/21 10:27:54;;;;;;;3.40;3.10;;;8.90;99.90;;;;;;5030173;28;20162;-80
2023/12/21 10:30:23;;;;;;;4.70;3.20;;;8.90;99.90;;;;;;5034321;28;26335;-81
2023/12/21 10:32:55;;;;;;;3.17;2.97;;;8.90;99.90;;;;;;5027097;28;20411;-81
2023/12/21 10:35:25;;;;;;;4.10;3.50;;;8.90;99.90;;;;;;5039703;28;20052;-81
2023/12/21 10:37:52;;;;;;;2.90;2.70;;;8.90;99.90;;;;;;5038746;28;20697;-82
2023/12/21 10:40:19;;;;;;;3.17;2.97;;;8.90;99.90;;;;;;5024619;28;20059;-80
2023/12/21 10:42:47;;;;;;;4.00;2.95;;;8.90;99.90;;;;;;5036072;28;20049;-81
2023/12/21 10:45:16;;;;;;;3.75;3.38;;;8.90;99.90;;;;;;5047414;28;20045;-82
2023/12/21 10:48:02;;;;;;;;;;;8.90;99.90;;;;;;5056978;28;20072;-81
2023/12/21 10:50:30;;;;;;;4.57;4.13;;;8.90;99.90;;;;;;5030238;28;19929;-82
2023/12/21 10:52:59;;;;;;;3.58;3.28;;;8.90;99.90;;;;;;5044280;28;20049;-82
2023/12/21 10:55:28;;;;;;;5.05;4.55;;;8.90;99.90;;;;;;5025156;28;20045;-82
2023/12/21 10:57:57;;;;;;;4.13;3.72;;;8.90;99.90;;;;;;5029208;28;20135;-83
2023/12/21 11:00:24;;;;;;;5.25;4.75;;;9.00;99.90;;;;;;5049211;28;20039;-81
2023/12/21 11:02:52;;;;;;;5.18;4.63;;;9.00;99.90;;;;;;5041280;28;20100;-81
2023/12/21 11:05:22;;;;;;;4.90;4.40;;;9.00;99.90;;;;;;5019359;28;20716;-80
2023/12/21 11:07:54;;;;;;;5.18;4.65;;;9.00;99.90;;;;;;5040347;28;20041;-81
2023/12/21 11:10:22;;;;;;;5.47;4.97;;;9.00;99.90;;;;;;5027312;28;20053;-86
2023/12/21 11:12:50;;;;;;;5.00;4.60;;;9.00;99.90;;;;;;5045375;28;20038;-81
2023/12/21 11:15:19;;;;;;;6.35;5.78;;;9.00;99.90;;;;;;5032985;28;20051;-83
2023/12/21 11:17:53;;;;;;;6.22;5.72;;;9.10;99.90;;;;;;5041355;28;20132;-81
2023/12/21 11:20:28;;;;;;;6.10;5.50;;;9.00;99.90;;;;;;5041567;28;20621;-80
2023/12/21 11:23:11;;;;;;;5.57;5.07;;;9.10;99.90;;;;;;5047771;28;20534;-84
2023/12/21 11:25:38;;;;;;;7.70;6.18;;;9.10;99.90;;;;;;5039538;28;20071;-84
2023/12/21 11:28:05;;;;;;;5.18;4.78;;;9.10;99.90;;;;;;5052030;28;20076;-84
2023/12/21 11:30:32;;;;;;;5.55;4.90;;;9.10;99.90;;;;;;5030615;28;20092;-82
2023/12/21 11:33:05;;;;;;;7.10;6.47;;;9.10;99.90;;;;;;5035159;28;20536;-81
2023/12/21 11:35:32;;;;;;;6.90;6.30;;;9.10;99.90;;;;;;5043728;28;20106;-81
2023/12/21 11:38:00;;;;;;;6.85;6.18;;;9.20;99.90;;;;;;5050185;28;20057;-81
2023/12/21 11:40:29;;;;;;;5.93;5.43;;;9.20;99.90;;;;;;5045222;28;20052;-82
2023/12/21 11:42:56;;;;;;;7.80;6.90;;;9.20;99.90;;;;;;5040707;28;20080;-80
2023/12/21 11:45:28;;;;;;;5.72;5.22;;;9.20;99.90;;;;;;5044642;28;20045;-83
2023/12/21 11:48:00;;;;;;;6.47;5.88;;;9.20;99.90;;;;;;5030696;28;20048;-82
2023/12/21 11:50:30;;;;;;;5.65;5.15;;;9.20;99.90;;;;;;5037228;28;20120;-81
2023/12/21 11:53:05;;;;;;;6.95;5.40;;;9.20;99.90;;;;;;5045576;28;20135;-84
2023/12/21 11:55:44;;;;;;;7.43;5.85;;;9.20;99.90;;;;;;5030355;28;20633;-85
2023/12/21 11:58:19;;;;;;;5.63;5.22;;;9.20;99.90;;;;;;5042189;28;20436;-81
2023/12/21 12:00:52;;;;;;;6.82;6.20;;;9.20;99.90;;;;;;5043636;28;20045;-82
2023/12/21 12:03:20;;;;;;;8.02;7.30;;;9.30;99.90;;;;;;5030133;28;20107;-81
2023/12/21 12:05:54;;;;;;;6.57;5.95;;;9.30;99.90;;;;;;5045330;28;20143;-84
2023/12/21 12:08:25;;;;;;;11.57;6.90;;;9.30;99.90;;;;;;5031000;28;20117;-81
2023/12/21 12:10:59;;;;;;;7.72;7.00;;;9.30;99.90;;;;;;5048721;28;20045;-82
2023/12/21 12:13:26;;;;;;;8.23;7.38;;;9.30;99.90;;;;;;5052384;28;20576;-83
2023/12/21 12:15:53;;;;;;;8.68;7.75;;;9.30;99.90;;;;;;5048689;28;20048;-84
2023/12/21 12:18:21;;;;;;;6.68;6.00;;;9.30;99.90;;;;;;5031552;28;20442;-86
2023/12/21 12:20:50;;;;;;;7.93;6.22;;;9.30;99.90;;;;;;5046656;28;20044;-83
2023/12/21 12:23:19;;;;;;;8.07;7.28;;;9.30;99.90;;;;;;5030517;28;20144;-83
2023/12/21 12:25:46;;;;;;;8.40;7.60;;;9.40;99.90;;;;;;5039626;28;20036;-83
2023/12/21 12:28:17;;;;;;;9.40;8.60;;;9.40;99.90;;;;;;5050927;28;20510;-84
2023/12/21 12:30:47;;;;;;;8.70;7.93;;;9.40;99.90;;;;;;5045370;28;20048;-82
2023/12/21 12:33:15;;;;;;;11.25;9.25;;;9.50;99.90;;;;;;5052508;28;20143;-81
2023/12/21 12:35:48;;;;;;;9.70;8.23;;;9.40;99.90;;;;;;5041059;28;20059;-84
2023/12/21 12:38:16;;;;;;;9.07;8.07;;;9.50;99.90;;;;;;5049814;28;20051;-81
2023/12/21 12:40:47;;;;;;;8.35;6.57;;;9.50;99.90;;;;;;5045925;28;20048;-82
2023/12/21 12:43:14;;;;;;;7.18;6.30;;;9.50;99.90;;;;;;5040241;28;20079;-81
2023/12/21 12:45:42;;;;;;;8.27;5.68;;;9.50;99.90;;;;;;5031598;28;20403;-81
2023/12/21 12:48:14;;;;;;;10.18;5.90;;;9.60;99.90;;;;;;5044674;28;20054;-83
2023/12/21 12:50:42;;;;;;;10.57;8.20;;;9.60;99.90;;;;;;5026705;28;20048;-84
2023/12/21 12:53:10;;;;;;;7.65;5.13;;;9.50;99.90;;;;;;5049245;28;20048;-85